MAPA DE AEROPUERTO

INFORMACIÓN METAR y TAF

METAR FOR LEPA
ADDS - METARS form results

(1105 UTC 02 June 2020)
Data provider http://aviationweather.gov/metar/data/
 
METAR text: LEPA 021100Z 24012KT 210V280 CAVOK 26/15 Q1016 NOSIG
Conditions at: LEPA (PALMA DE MALLORC, ES) observed 1100 UTC 02 June 2020
Temperature: 26.0°C (79°F)
Dewpoint: 15.0°C (59°F) [RH = 51%]
Pressure (altimeter): 30.00 inches Hg (1016.0 mb)
Winds: from the WSW (240 degrees) at 14 MPH (12 knots; 6.2 m/s)
Visibility: 6 or more miles (10+ km)
Ceiling: ceiling and visibility are OK
Clouds: unknown
Weather: no significant weather observed at this time

METAR text: LEPA 021030Z 24009KT 200V280 CAVOK 25/10 Q1016 NOSIG
Conditions at: LEPA (PALMA DE MALLORC, ES) observed 1030 UTC 02 June 2020
Temperature: 25.0°C (77°F)
Dewpoint: 10.0°C (50°F) [RH = 39%]
Pressure (altimeter): 30.00 inches Hg (1016.0 mb)
Winds: from the WSW (240 degrees) at 10 MPH (9 knots; 4.6 m/s)
Visibility: 6 or more miles (10+ km)
Ceiling: ceiling and visibility are OK
Clouds: unknown
Weather: no significant weather observed at this time

Forecast for: LEPA (PALMA DE MALLORC, ES)
Text: TAF LEPA 020500Z 0206/0306 VRB03KT CAVOK TX27/0212Z TN15/0206Z
Forecast period: 0600 to 0800 UTC 02 June 2020
Forecast type: FROM: standard forecast or significant change
Winds: variable direction winds at 3 MPH (3 knots; 1.5 m/s)
Visibility: 6 or more miles 10+ km)
Ceiling: unknown
Clouds: missing
Weather: no significant weather forecast for this period
Text: BECMG 0208/0210 21010KT
Forecast period: 0800 to 1800 UTC 02 June 2020
Forecast type: BECOMING: Conditions expected to become as follows by 1000 UTC 02 June 2020
Winds: from the SSW (210 degrees) at 12 MPH (10 knots; 5.1 m/s)
Visibility: 6 or more miles 10+ km)
Ceiling: unknown
Clouds: missing
Weather: no significant weather forecast for this period
Text: BECMG 0218/0220 VRB03KT
Forecast period: 1800 UTC 02 June 2020 to 0600 UTC 03 June 2020
Forecast type: BECOMING: Conditions expected to become as follows by 2000 UTC 02 June 2020
Winds: variable direction winds at 3 MPH (3 knots; 1.5 m/s)
Visibility: 6 or more miles 10+ km)
Ceiling: unknown
Clouds: missing
Weather: no significant weather forecast for this period